Terminal Aerodrome Forecast
Issued by NWS

Home | Current Version | Previous Version | Text Only | Print | Product List | Glossary On
Versions: 1 2 3 4 5 6 7 8 9 10 11 12 13 14 15
000
FTUS45 KTFX 240500
TAFHVR
TAF
KHVR 240520Z 2406/2506 11005KT P6SM SCT100
     FM241800 20010KT P6SM SCT080 BKN150
     FM250100 14011KT P6SM SCT110=

USA.gov is the U.S. government's official web portal to all federal, state and local government web resources and services.